sensor_id;sensor_type;location;lat;lon;timestamp;P1;durP1;ratioP1;P2;durP2;ratioP2
23702;SDS011;12030;50.376;8.762;2023-05-29T00:00:43;5.47;;;3.50;;
23702;SDS011;12030;50.376;8.762;2023-05-29T00:03:09;6.27;;;3.00;;
23702;SDS011;12030;50.376;8.762;2023-05-29T00:05:35;6.37;;;2.83;;
23702;SDS011;12030;50.376;8.762;2023-05-29T00:08:01;4.13;;;3.10;;
23702;SDS011;12030;50.376;8.762;2023-05-29T00:10:26;5.03;;;2.87;;
23702;SDS011;12030;50.376;8.762;2023-05-29T00:12:52;6.17;;;3.67;;
23702;SDS011;12030;50.376;8.762;2023-05-29T00:15:17;4.23;;;2.90;;
23702;SDS011;12030;50.376;8.762;2023-05-29T00:17:43;7.20;;;3.00;;
23702;SDS011;12030;50.376;8.762;2023-05-29T00:20:09;4.97;;;3.10;;
23702;SDS011;12030;50.376;8.762;2023-05-29T00:22:36;5.97;;;2.83;;
23702;SDS011;12030;50.376;8.762;2023-05-29T00:25:03;4.43;;;2.90;;
23702;SDS011;12030;50.376;8.762;2023-05-29T00:27:30;4.53;;;3.07;;
23702;SDS011;12030;50.376;8.762;2023-05-29T00:29:57;4.53;;;3.23;;
23702;SDS011;12030;50.376;8.762;2023-05-29T00:32:23;5.60;;;3.00;;
23702;SDS011;12030;50.376;8.762;2023-05-29T00:34:48;4.13;;;2.87;;
23702;SDS011;12030;50.376;8.762;2023-05-29T00:37:15;4.90;;;2.77;;
23702;SDS011;12030;50.376;8.762;2023-05-29T00:39:40;6.50;;;3.23;;
23702;SDS011;12030;50.376;8.762;2023-05-29T00:42:06;5.73;;;3.33;;
23702;SDS011;12030;50.376;8.762;2023-05-29T00:44:32;6.53;;;2.97;;
23702;SDS011;12030;50.376;8.762;2023-05-29T00:46:57;3.87;;;3.20;;
23702;SDS011;12030;50.376;8.762;2023-05-29T00:49:23;4.60;;;3.20;;
23702;SDS011;12030;50.376;8.762;2023-05-29T00:51:50;4.83;;;3.20;;
23702;SDS011;12030;50.376;8.762;2023-05-29T00:54:20;5.87;;;3.07;;
23702;SDS011;12030;50.376;8.762;2023-05-29T00:56:48;4.23;;;2.90;;
23702;SDS011;12030;50.376;8.762;2023-05-29T00:59:14;5.17;;;3.20;;
23702;SDS011;12030;50.376;8.762;2023-05-29T01:01:40;5.03;;;3.17;;
23702;SDS011;12030;50.376;8.762;2023-05-29T01:04:07;6.87;;;2.80;;
23702;SDS011;12030;50.376;8.762;2023-05-29T01:06:37;6.53;;;3.10;;
23702;SDS011;12030;50.376;8.762;2023-05-29T01:09:04;5.60;;;3.03;;
23702;SDS011;12030;50.376;8.762;2023-05-29T01:11:36;4.00;;;3.00;;
23702;SDS011;12030;50.376;8.762;2023-05-29T01:14:16;5.53;;;2.83;;
23702;SDS011;12030;50.376;8.762;2023-05-29T01:17:03;3.33;;;2.70;;
23702;SDS011;12030;50.376;8.762;2023-05-29T01:25:18;4.40;;;3.23;;
23702;SDS011;12030;50.376;8.762;2023-05-29T01:27:48;4.07;;;3.13;;
23702;SDS011;12030;50.376;8.762;2023-05-29T01:30:15;4.63;;;3.00;;
23702;SDS011;12030;50.376;8.762;2023-05-29T01:32:41;4.30;;;2.87;;
23702;SDS011;12030;50.376;8.762;2023-05-29T01:35:08;6.43;;;3.37;;
23702;SDS011;12030;50.376;8.762;2023-05-29T01:37:33;5.00;;;3.00;;
23702;SDS011;12030;50.376;8.762;2023-05-29T01:39:59;4.70;;;2.93;;
23702;SDS011;12030;50.376;8.762;2023-05-29T01:42:26;3.70;;;3.00;;
23702;SDS011;12030;50.376;8.762;2023-05-29T01:44:53;5.37;;;3.40;;
23702;SDS011;12030;50.376;8.762;2023-05-29T01:47:20;5.47;;;3.10;;
23702;SDS011;12030;50.376;8.762;2023-05-29T01:49:47;5.30;;;3.20;;
23702;SDS011;12030;50.376;8.762;2023-05-29T01:52:14;3.50;;;3.00;;
23702;SDS011;12030;50.376;8.762;2023-05-29T01:54:40;4.47;;;3.10;;
23702;SDS011;12030;50.376;8.762;2023-05-29T01:57:06;5.10;;;3.30;;
23702;SDS011;12030;50.376;8.762;2023-05-29T01:59:32;3.70;;;3.00;;
23702;SDS011;12030;50.376;8.762;2023-05-29T02:02:06;5.67;;;3.00;;
23702;SDS011;12030;50.376;8.762;2023-05-29T02:04:32;5.33;;;2.80;;
23702;SDS011;12030;50.376;8.762;2023-05-29T02:06:58;5.17;;;2.90;;
23702;SDS011;12030;50.376;8.762;2023-05-29T02:09:24;6.07;;;2.80;;
23702;SDS011;12030;50.376;8.762;2023-05-29T02:11:50;3.93;;;2.90;;
23702;SDS011;12030;50.376;8.762;2023-05-29T02:14:15;4.77;;;3.20;;
23702;SDS011;12030;50.376;8.762;2023-05-29T02:16:41;3.33;;;2.60;;
23702;SDS011;12030;50.376;8.762;2023-05-29T02:19:08;7.03;;;3.80;;
23702;SDS011;12030;50.376;8.762;2023-05-29T02:21:37;5.00;;;3.07;;
23702;SDS011;12030;50.376;8.762;2023-05-29T02:24:03;4.17;;;2.83;;
23702;SDS011;12030;50.376;8.762;2023-05-29T02:26:29;5.70;;;3.10;;
23702;SDS011;12030;50.376;8.762;2023-05-29T02:28:54;5.80;;;3.20;;
23702;SDS011;12030;50.376;8.762;2023-05-29T02:31:20;5.70;;;2.90;;
23702;SDS011;12030;50.376;8.762;2023-05-29T02:33:45;6.33;;;3.73;;
23702;SDS011;12030;50.376;8.762;2023-05-29T02:36:11;4.17;;;3.20;;
23702;SDS011;12030;50.376;8.762;2023-05-29T02:38:37;5.67;;;3.07;;
23702;SDS011;12030;50.376;8.762;2023-05-29T02:41:03;4.33;;;3.03;;
23702;SDS011;12030;50.376;8.762;2023-05-29T02:43:28;6.83;;;3.33;;
23702;SDS011;12030;50.376;8.762;2023-05-29T02:45:54;4.83;;;3.17;;
23702;SDS011;12030;50.376;8.762;2023-05-29T02:48:20;5.73;;;3.27;;
23702;SDS011;12030;50.376;8.762;2023-05-29T02:50:46;6.23;;;3.53;;
23702;SDS011;12030;50.376;8.762;2023-05-29T02:53:11;6.57;;;3.20;;
23702;SDS011;12030;50.376;8.762;2023-05-29T02:55:37;5.83;;;3.40;;
23702;SDS011;12030;50.376;8.762;2023-05-29T02:58:02;4.23;;;2.87;;
23702;SDS011;12030;50.376;8.762;2023-05-29T03:00:28;5.00;;;3.00;;
23702;SDS011;12030;50.376;8.762;2023-05-29T03:02:54;6.23;;;3.13;;
23702;SDS011;12030;50.376;8.762;2023-05-29T03:05:20;5.17;;;3.37;;
23702;SDS011;12030;50.376;8.762;2023-05-29T03:07:46;4.87;;;3.30;;
23702;SDS011;12030;50.376;8.762;2023-05-29T03:10:11;5.37;;;3.30;;
23702;SDS011;12030;50.376;8.762;2023-05-29T03:12:37;4.70;;;3.13;;
23702;SDS011;12030;50.376;8.762;2023-05-29T03:15:04;5.90;;;3.80;;
23702;SDS011;12030;50.376;8.762;2023-05-29T03:17:30;5.97;;;3.80;;
23702;SDS011;12030;50.376;8.762;2023-05-29T03:19:56;4.97;;;3.93;;
23702;SDS011;12030;50.376;8.762;2023-05-29T03:22:22;6.57;;;3.47;;
23702;SDS011;12030;50.376;8.762;2023-05-29T03:24:48;5.70;;;3.43;;
23702;SDS011;12030;50.376;8.762;2023-05-29T03:27:13;4.50;;;3.43;;
23702;SDS011;12030;50.376;8.762;2023-05-29T03:29:39;6.50;;;3.53;;
23702;SDS011;12030;50.376;8.762;2023-05-29T03:32:04;6.00;;;4.10;;
23702;SDS011;12030;50.376;8.762;2023-05-29T03:34:30;5.33;;;3.57;;
23702;SDS011;12030;50.376;8.762;2023-05-29T03:36:56;6.03;;;3.47;;
23702;SDS011;12030;50.376;8.762;2023-05-29T03:39:22;7.30;;;3.87;;
23702;SDS011;12030;50.376;8.762;2023-05-29T03:41:47;7.33;;;4.03;;
23702;SDS011;12030;50.376;8.762;2023-05-29T03:44:13;6.20;;;3.80;;
23702;SDS011;12030;50.376;8.762;2023-05-29T03:46:38;6.93;;;3.80;;
23702;SDS011;12030;50.376;8.762;2023-05-29T03:49:04;6.97;;;4.57;;
23702;SDS011;12030;50.376;8.762;2023-05-29T03:51:32;5.77;;;4.00;;
23702;SDS011;12030;50.376;8.762;2023-05-29T03:53:57;5.40;;;3.80;;
23702;SDS011;12030;50.376;8.762;2023-05-29T03:56:23;8.07;;;4.47;;
23702;SDS011;12030;50.376;8.762;2023-05-29T03:58:49;9.00;;;4.50;;
23702;SDS011;12030;50.376;8.762;2023-05-29T04:01:14;5.60;;;3.90;;
23702;SDS011;12030;50.376;8.762;2023-05-29T04:03:40;6.97;;;4.57;;
23702;SDS011;12030;50.376;8.762;2023-05-29T04:06:06;8.03;;;3.77;;
23702;SDS011;12030;50.376;8.762;2023-05-29T04:08:32;6.57;;;4.33;;
23702;SDS011;12030;50.376;8.762;2023-05-29T04:10:57;5.23;;;3.80;;
23702;SDS011;12030;50.376;8.762;2023-05-29T04:13:23;9.50;;;4.40;;
23702;SDS011;12030;50.376;8.762;2023-05-29T04:15:48;6.20;;;4.00;;
23702;SDS011;12030;50.376;8.762;2023-05-29T04:18:14;5.63;;;4.67;;
23702;SDS011;12030;50.376;8.762;2023-05-29T04:20:39;7.13;;;4.67;;
23702;SDS011;12030;50.376;8.762;2023-05-29T04:23:05;5.90;;;4.03;;
23702;SDS011;12030;50.376;8.762;2023-05-29T04:25:31;8.63;;;4.17;;
23702;SDS011;12030;50.376;8.762;2023-05-29T04:27:57;6.50;;;4.53;;
23702;SDS011;12030;50.376;8.762;2023-05-29T04:30:22;7.13;;;4.67;;
23702;SDS011;12030;50.376;8.762;2023-05-29T04:32:48;9.90;;;4.00;;
23702;SDS011;12030;50.376;8.762;2023-05-29T04:35:13;5.80;;;3.70;;
23702;SDS011;12030;50.376;8.762;2023-05-29T04:37:39;4.93;;;3.97;;
23702;SDS011;12030;50.376;8.762;2023-05-29T04:40:07;6.93;;;4.40;;
23702;SDS011;12030;50.376;8.762;2023-05-29T04:42:36;7.77;;;4.17;;
23702;SDS011;12030;50.376;8.762;2023-05-29T04:45:03;7.07;;;4.20;;
23702;SDS011;12030;50.376;8.762;2023-05-29T04:47:32;5.77;;;3.70;;
23702;SDS011;12030;50.376;8.762;2023-05-29T04:50:00;5.73;;;4.07;;
23702;SDS011;12030;50.376;8.762;2023-05-29T04:52:26;8.77;;;3.83;;
23702;SDS011;12030;50.376;8.762;2023-05-29T04:54:53;7.60;;;3.97;;
23702;SDS011;12030;50.376;8.762;2023-05-29T04:57:21;8.13;;;4.67;;
23702;SDS011;12030;50.376;8.762;2023-05-29T04:59:47;9.33;;;4.37;;
23702;SDS011;12030;50.376;8.762;2023-05-29T05:02:12;11.30;;;4.57;;
23702;SDS011;12030;50.376;8.762;2023-05-29T05:04:38;6.87;;;4.30;;
23702;SDS011;12030;50.376;8.762;2023-05-29T05:07:05;4.73;;;4.10;;
23702;SDS011;12030;50.376;8.762;2023-05-29T05:09:30;6.47;;;4.50;;
23702;SDS011;12030;50.376;8.762;2023-05-29T05:11:56;7.57;;;4.13;;
23702;SDS011;12030;50.376;8.762;2023-05-29T05:14:22;7.03;;;4.20;;
23702;SDS011;12030;50.376;8.762;2023-05-29T05:16:48;4.70;;;3.90;;
23702;SDS011;12030;50.376;8.762;2023-05-29T05:19:13;8.17;;;4.23;;
23702;SDS011;12030;50.376;8.762;2023-05-29T05:21:39;6.47;;;3.77;;
23702;SDS011;12030;50.376;8.762;2023-05-29T05:24:05;8.57;;;4.13;;
23702;SDS011;12030;50.376;8.762;2023-05-29T05:26:31;7.07;;;3.70;;
23702;SDS011;12030;50.376;8.762;2023-05-29T05:28:56;5.90;;;3.80;;
23702;SDS011;12030;50.376;8.762;2023-05-29T05:31:22;7.07;;;4.07;;
23702;SDS011;12030;50.376;8.762;2023-05-29T05:33:48;5.97;;;3.30;;
23702;SDS011;12030;50.376;8.762;2023-05-29T05:36:14;8.83;;;4.23;;
23702;SDS011;12030;50.376;8.762;2023-05-29T05:38:40;4.80;;;3.57;;
23702;SDS011;12030;50.376;8.762;2023-05-29T05:41:05;6.17;;;3.63;;
23702;SDS011;12030;50.376;8.762;2023-05-29T05:43:31;7.57;;;4.03;;
23702;SDS011;12030;50.376;8.762;2023-05-29T05:45:57;5.27;;;3.97;;
23702;SDS011;12030;50.376;8.762;2023-05-29T05:48:22;6.03;;;3.83;;
23702;SDS011;12030;50.376;8.762;2023-05-29T05:50:48;7.07;;;3.67;;
23702;SDS011;12030;50.376;8.762;2023-05-29T05:53:13;5.80;;;3.60;;
23702;SDS011;12030;50.376;8.762;2023-05-29T05:55:39;5.30;;;3.40;;
23702;SDS011;12030;50.376;8.762;2023-05-29T05:58:04;5.97;;;3.67;;
23702;SDS011;12030;50.376;8.762;2023-05-29T06:00:30;8.57;;;3.90;;
23702;SDS011;12030;50.376;8.762;2023-05-29T06:02:55;7.37;;;3.37;;
23702;SDS011;12030;50.376;8.762;2023-05-29T06:05:21;8.20;;;3.50;;
23702;SDS011;12030;50.376;8.762;2023-05-29T06:07:47;7.27;;;3.43;;
23702;SDS011;12030;50.376;8.762;2023-05-29T06:10:12;9.03;;;3.50;;
23702;SDS011;12030;50.376;8.762;2023-05-29T06:12:38;5.13;;;3.03;;
23702;SDS011;12030;50.376;8.762;2023-05-29T06:15:03;7.83;;;3.80;;
23702;SDS011;12030;50.376;8.762;2023-05-29T06:17:29;7.90;;;3.33;;
23702;SDS011;12030;50.376;8.762;2023-05-29T06:19:55;7.33;;;3.13;;
23702;SDS011;12030;50.376;8.762;2023-05-29T06:22:20;7.90;;;3.60;;
23702;SDS011;12030;50.376;8.762;2023-05-29T06:24:46;6.77;;;3.50;;
23702;SDS011;12030;50.376;8.762;2023-05-29T06:27:11;4.33;;;2.97;;
23702;SDS011;12030;50.376;8.762;2023-05-29T06:29:37;6.20;;;3.40;;
23702;SDS011;12030;50.376;8.762;2023-05-29T06:32:02;7.37;;;3.70;;
23702;SDS011;12030;50.376;8.762;2023-05-29T06:34:28;6.37;;;3.27;;
23702;SDS011;12030;50.376;8.762;2023-05-29T06:36:54;5.63;;;3.13;;
23702;SDS011;12030;50.376;8.762;2023-05-29T06:39:19;15.30;;;3.57;;
23702;SDS011;12030;50.376;8.762;2023-05-29T06:41:45;4.57;;;2.90;;
23702;SDS011;12030;50.376;8.762;2023-05-29T06:44:11;9.90;;;3.50;;
23702;SDS011;12030;50.376;8.762;2023-05-29T06:46:36;5.73;;;3.17;;
23702;SDS011;12030;50.376;8.762;2023-05-29T06:49:02;7.07;;;3.30;;
23702;SDS011;12030;50.376;8.762;2023-05-29T06:51:28;5.23;;;3.00;;
23702;SDS011;12030;50.376;8.762;2023-05-29T06:53:54;4.77;;;3.00;;
23702;SDS011;12030;50.376;8.762;2023-05-29T06:56:20;4.93;;;3.10;;
23702;SDS011;12030;50.376;8.762;2023-05-29T06:58:46;9.03;;;3.47;;
23702;SDS011;12030;50.376;8.762;2023-05-29T07:01:11;7.50;;;2.90;;
23702;SDS011;12030;50.376;8.762;2023-05-29T07:03:37;8.27;;;3.10;;
23702;SDS011;12030;50.376;8.762;2023-05-29T07:06:03;7.43;;;3.50;;
23702;SDS011;12030;50.376;8.762;2023-05-29T07:08:29;5.83;;;3.07;;
23702;SDS011;12030;50.376;8.762;2023-05-29T07:10:54;4.83;;;3.33;;
23702;SDS011;12030;50.376;8.762;2023-05-29T07:13:20;6.50;;;2.90;;
23702;SDS011;12030;50.376;8.762;2023-05-29T07:15:47;6.80;;;3.20;;
23702;SDS011;12030;50.376;8.762;2023-05-29T07:18:13;7.03;;;3.60;;
23702;SDS011;12030;50.376;8.762;2023-05-29T07:20:39;5.87;;;3.30;;
23702;SDS011;12030;50.376;8.762;2023-05-29T07:23:05;10.47;;;3.60;;
23702;SDS011;12030;50.376;8.762;2023-05-29T07:25:30;7.63;;;3.00;;
23702;SDS011;12030;50.376;8.762;2023-05-29T07:27:57;4.97;;;3.50;;
23702;SDS011;12030;50.376;8.762;2023-05-29T07:30:22;7.57;;;3.77;;
23702;SDS011;12030;50.376;8.762;2023-05-29T07:32:48;4.83;;;3.10;;
23702;SDS011;12030;50.376;8.762;2023-05-29T07:35:14;5.30;;;2.90;;
23702;SDS011;12030;50.376;8.762;2023-05-29T07:37:39;4.77;;;3.20;;
23702;SDS011;12030;50.376;8.762;2023-05-29T07:40:05;6.63;;;3.27;;
23702;SDS011;12030;50.376;8.762;2023-05-29T07:42:34;5.23;;;2.67;;
23702;SDS011;12030;50.376;8.762;2023-05-29T07:45:00;7.87;;;2.97;;
23702;SDS011;12030;50.376;8.762;2023-05-29T07:47:26;5.13;;;3.00;;
23702;SDS011;12030;50.376;8.762;2023-05-29T07:49:51;4.53;;;2.67;;
23702;SDS011;12030;50.376;8.762;2023-05-29T07:52:17;4.53;;;2.93;;
23702;SDS011;12030;50.376;8.762;2023-05-29T07:54:43;5.07;;;2.77;;
23702;SDS011;12030;50.376;8.762;2023-05-29T07:57:09;5.43;;;3.00;;
23702;SDS011;12030;50.376;8.762;2023-05-29T07:59:37;4.67;;;2.70;;
23702;SDS011;12030;50.376;8.762;2023-05-29T08:02:06;8.07;;;2.97;;
23702;SDS011;12030;50.376;8.762;2023-05-29T08:04:32;6.93;;;3.67;;
23702;SDS011;12030;50.376;8.762;2023-05-29T08:07:13;5.50;;;2.70;;
23702;SDS011;12030;50.376;8.762;2023-05-29T08:09:39;6.00;;;3.07;;
23702;SDS011;12030;50.376;8.762;2023-05-29T08:12:05;4.73;;;2.60;;
23702;SDS011;12030;50.376;8.762;2023-05-29T08:14:31;6.63;;;3.27;;
23702;SDS011;12030;50.376;8.762;2023-05-29T08:16:57;7.13;;;2.90;;
23702;SDS011;12030;50.376;8.762;2023-05-29T08:19:23;4.27;;;2.60;;
23702;SDS011;12030;50.376;8.762;2023-05-29T08:21:48;5.93;;;3.23;;
23702;SDS011;12030;50.376;8.762;2023-05-29T08:24:14;5.67;;;3.00;;
23702;SDS011;12030;50.376;8.762;2023-05-29T08:26:40;7.13;;;3.40;;
23702;SDS011;12030;50.376;8.762;2023-05-29T08:29:06;4.10;;;2.63;;
23702;SDS011;12030;50.376;8.762;2023-05-29T08:31:31;4.73;;;2.60;;
23702;SDS011;12030;50.376;8.762;2023-05-29T08:33:57;5.07;;;2.97;;
23702;SDS011;12030;50.376;8.762;2023-05-29T08:36:24;4.10;;;3.00;;
23702;SDS011;12030;50.376;8.762;2023-05-29T08:38:50;6.17;;;3.70;;
23702;SDS011;12030;50.376;8.762;2023-05-29T08:41:19;6.93;;;2.83;;
23702;SDS011;12030;50.376;8.762;2023-05-29T08:43:50;5.43;;;2.83;;
23702;SDS011;12030;50.376;8.762;2023-05-29T08:46:17;4.67;;;2.60;;
23702;SDS011;12030;50.376;8.762;2023-05-29T08:48:47;4.20;;;2.50;;
23702;SDS011;12030;50.376;8.762;2023-05-29T08:51:14;6.83;;;2.73;;
23702;SDS011;12030;50.376;8.762;2023-05-29T08:53:44;5.27;;;2.83;;
23702;SDS011;12030;50.376;8.762;2023-05-29T08:56:11;5.13;;;2.63;;
23702;SDS011;12030;50.376;8.762;2023-05-29T08:58:36;4.43;;;2.80;;
23702;SDS011;12030;50.376;8.762;2023-05-29T09:01:02;4.90;;;3.17;;
23702;SDS011;12030;50.376;8.762;2023-05-29T09:03:28;7.23;;;3.13;;
23702;SDS011;12030;50.376;8.762;2023-05-29T09:05:57;5.67;;;3.00;;
23702;SDS011;12030;50.376;8.762;2023-05-29T09:08:25;4.57;;;3.10;;
23702;SDS011;12030;50.376;8.762;2023-05-29T09:10:51;5.10;;;2.80;;
23702;SDS011;12030;50.376;8.762;2023-05-29T09:13:17;4.10;;;2.80;;
23702;SDS011;12030;50.376;8.762;2023-05-29T09:15:42;5.87;;;2.90;;
23702;SDS011;12030;50.376;8.762;2023-05-29T09:18:08;6.83;;;2.90;;
23702;SDS011;12030;50.376;8.762;2023-05-29T09:20:34;5.90;;;2.67;;
23702;SDS011;12030;50.376;8.762;2023-05-29T09:23:00;5.03;;;2.77;;
23702;SDS011;12030;50.376;8.762;2023-05-29T09:25:30;6.00;;;2.90;;
23702;SDS011;12030;50.376;8.762;2023-05-29T09:33:01;5.37;;;2.53;;
23702;SDS011;12030;50.376;8.762;2023-05-29T09:35:32;4.70;;;2.50;;
23702;SDS011;12030;50.376;8.762;2023-05-29T09:37:59;6.77;;;2.77;;
23702;SDS011;12030;50.376;8.762;2023-05-29T09:40:24;5.00;;;2.43;;
23702;SDS011;12030;50.376;8.762;2023-05-29T09:42:50;4.50;;;2.47;;
23702;SDS011;12030;50.376;8.762;2023-05-29T09:45:18;4.07;;;2.43;;
23702;SDS011;12030;50.376;8.762;2023-05-29T09:47:46;3.80;;;2.70;;
23702;SDS011;12030;50.376;8.762;2023-05-29T09:50:18;4.27;;;2.43;;
23702;SDS011;12030;50.376;8.762;2023-05-29T09:52:47;5.30;;;2.80;;
23702;SDS011;12030;50.376;8.762;2023-05-29T09:55:17;5.20;;;3.00;;
23702;SDS011;12030;50.376;8.762;2023-05-29T09:57:46;4.50;;;2.70;;
23702;SDS011;12030;50.376;8.762;2023-05-29T10:00:13;4.83;;;2.50;;
23702;SDS011;12030;50.376;8.762;2023-05-29T10:02:41;5.13;;;2.50;;
23702;SDS011;12030;50.376;8.762;2023-05-29T10:05:07;5.83;;;2.87;;
23702;SDS011;12030;50.376;8.762;2023-05-29T10:07:37;4.00;;;2.60;;
23702;SDS011;12030;50.376;8.762;2023-05-29T10:10:05;4.30;;;2.33;;
23702;SDS011;12030;50.376;8.762;2023-05-29T10:12:55;3.43;;;2.43;;
23702;SDS011;12030;50.376;8.762;2023-05-29T10:15:22;3.93;;;2.60;;
23702;SDS011;12030;50.376;8.762;2023-05-29T10:17:49;4.20;;;2.40;;
23702;SDS011;12030;50.376;8.762;2023-05-29T10:20:17;5.63;;;2.73;;
23702;SDS011;12030;50.376;8.762;2023-05-29T10:22:45;6.53;;;2.50;;
23702;SDS011;12030;50.376;8.762;2023-05-29T10:25:13;3.77;;;2.33;;
23702;SDS011;12030;50.376;8.762;2023-05-29T10:27:40;4.20;;;2.53;;
23702;SDS011;12030;50.376;8.762;2023-05-29T10:30:12;5.00;;;2.40;;
23702;SDS011;12030;50.376;8.762;2023-05-29T10:32:48;3.60;;;2.00;;
23702;SDS011;12030;50.376;8.762;2023-05-29T10:35:42;4.67;;;2.40;;
23702;SDS011;12030;50.376;8.762;2023-05-29T10:38:33;3.83;;;2.57;;
23702;SDS011;12030;50.376;8.762;2023-05-29T10:43:53;5.27;;;2.60;;
23702;SDS011;12030;50.376;8.762;2023-05-29T10:46:20;5.37;;;2.43;;
23702;SDS011;12030;50.376;8.762;2023-05-29T10:48:48;4.37;;;2.40;;
23702;SDS011;12030;50.376;8.762;2023-05-29T10:51:24;6.50;;;2.40;;
23702;SDS011;12030;50.376;8.762;2023-05-29T10:53:52;5.90;;;2.20;;
23702;SDS011;12030;50.376;8.762;2023-05-29T10:56:21;6.50;;;2.60;;
23702;SDS011;12030;50.376;8.762;2023-05-29T10:58:52;4.17;;;2.10;;
23702;SDS011;12030;50.376;8.762;2023-05-29T11:01:23;3.93;;;2.20;;
23702;SDS011;12030;50.376;8.762;2023-05-29T11:03:50;3.83;;;2.30;;
23702;SDS011;12030;50.376;8.762;2023-05-29T11:06:18;3.90;;;2.57;;
23702;SDS011;12030;50.376;8.762;2023-05-29T11:08:45;4.23;;;2.63;;
23702;SDS011;12030;50.376;8.762;2023-05-29T11:11:33;3.73;;;2.43;;
23702;SDS011;12030;50.376;8.762;2023-05-29T11:14:02;4.07;;;2.30;;
23702;SDS011;12030;50.376;8.762;2023-05-29T11:18:56;4.60;;;2.60;;
23702;SDS011;12030;50.376;8.762;2023-05-29T11:24:20;3.97;;;2.30;;
23702;SDS011;12030;50.376;8.762;2023-05-29T11:26:55;4.97;;;2.57;;
23702;SDS011;12030;50.376;8.762;2023-05-29T11:29:28;5.07;;;2.40;;
23702;SDS011;12030;50.376;8.762;2023-05-29T11:31:57;5.63;;;2.77;;
23702;SDS011;12030;50.376;8.762;2023-05-29T11:34:28;3.83;;;2.43;;
23702;SDS011;12030;50.376;8.762;2023-05-29T11:36:54;3.77;;;2.00;;
23702;SDS011;12030;50.376;8.762;2023-05-29T11:39:22;5.07;;;2.53;;
23702;SDS011;12030;50.376;8.762;2023-05-29T11:41:51;4.90;;;2.20;;
23702;SDS011;12030;50.376;8.762;2023-05-29T11:44:17;3.00;;;2.00;;
23702;SDS011;12030;50.376;8.762;2023-05-29T11:46:43;4.90;;;2.50;;
23702;SDS011;12030;50.376;8.762;2023-05-29T11:49:09;4.90;;;2.13;;
23702;SDS011;12030;50.376;8.762;2023-05-29T11:51:34;3.73;;;2.37;;
23702;SDS011;12030;50.376;8.762;2023-05-29T11:54:00;5.93;;;2.63;;
23702;SDS011;12030;50.376;8.762;2023-05-29T11:56:26;3.70;;;2.00;;
23702;SDS011;12030;50.376;8.762;2023-05-29T11:58:52;3.43;;;2.40;;
23702;SDS011;12030;50.376;8.762;2023-05-29T12:01:26;5.50;;;2.40;;
23702;SDS011;12030;50.376;8.762;2023-05-29T12:03:52;6.57;;;2.80;;
23702;SDS011;12030;50.376;8.762;2023-05-29T12:06:30;4.20;;;2.40;;
23702;SDS011;12030;50.376;8.762;2023-05-29T12:08:57;3.13;;;2.20;;
23702;SDS011;12030;50.376;8.762;2023-05-29T12:11:23;4.53;;;2.50;;
23702;SDS011;12030;50.376;8.762;2023-05-29T12:13:54;4.23;;;2.57;;
23702;SDS011;12030;50.376;8.762;2023-05-29T12:16:21;3.83;;;2.37;;
23702;SDS011;12030;50.376;8.762;2023-05-29T12:18:46;5.63;;;2.37;;
23702;SDS011;12030;50.376;8.762;2023-05-29T12:21:12;4.33;;;2.50;;
23702;SDS011;12030;50.376;8.762;2023-05-29T12:23:38;6.87;;;2.40;;
23702;SDS011;12030;50.376;8.762;2023-05-29T12:26:04;5.87;;;2.47;;
23702;SDS011;12030;50.376;8.762;2023-05-29T12:28:30;5.33;;;2.63;;
23702;SDS011;12030;50.376;8.762;2023-05-29T12:30:59;4.03;;;2.40;;
23702;SDS011;12030;50.376;8.762;2023-05-29T12:33:31;3.10;;;2.20;;
23702;SDS011;12030;50.376;8.762;2023-05-29T12:36:01;5.67;;;2.53;;
23702;SDS011;12030;50.376;8.762;2023-05-29T12:38:28;4.60;;;2.97;;
23702;SDS011;12030;50.376;8.762;2023-05-29T12:40:55;4.87;;;2.60;;
23702;SDS011;12030;50.376;8.762;2023-05-29T12:43:21;5.47;;;2.80;;
23702;SDS011;12030;50.376;8.762;2023-05-29T12:45:53;4.40;;;2.60;;
23702;SDS011;12030;50.376;8.762;2023-05-29T12:48:20;4.37;;;2.40;;
23702;SDS011;12030;50.376;8.762;2023-05-29T12:50:47;6.00;;;3.03;;
23702;SDS011;12030;50.376;8.762;2023-05-29T12:53:15;2.73;;;1.77;;
23702;SDS011;12030;50.376;8.762;2023-05-29T12:55:41;5.90;;;2.50;;
23702;SDS011;12030;50.376;8.762;2023-05-29T12:58:11;5.03;;;2.63;;
23702;SDS011;12030;50.376;8.762;2023-05-29T13:00:38;3.73;;;2.47;;
23702;SDS011;12030;50.376;8.762;2023-05-29T13:03:05;3.03;;;2.00;;
23702;SDS011;12030;50.376;8.762;2023-05-29T13:05:31;3.63;;;2.20;;
23702;SDS011;12030;50.376;8.762;2023-05-29T13:07:58;5.40;;;2.77;;
23702;SDS011;12030;50.376;8.762;2023-05-29T13:10:24;4.43;;;2.37;;
23702;SDS011;12030;50.376;8.762;2023-05-29T13:12:51;4.13;;;2.47;;
23702;SDS011;12030;50.376;8.762;2023-05-29T13:15:19;4.37;;;2.57;;
23702;SDS011;12030;50.376;8.762;2023-05-29T13:17:48;6.30;;;2.40;;
23702;SDS011;12030;50.376;8.762;2023-05-29T13:20:14;6.27;;;2.70;;
23702;SDS011;12030;50.376;8.762;2023-05-29T13:22:40;5.43;;;2.60;;
23702;SDS011;12030;50.376;8.762;2023-05-29T13:25:08;5.47;;;2.40;;
23702;SDS011;12030;50.376;8.762;2023-05-29T13:27:38;3.80;;;2.63;;
23702;SDS011;12030;50.376;8.762;2023-05-29T13:30:06;3.90;;;2.80;;
23702;SDS011;12030;50.376;8.762;2023-05-29T13:32:33;10.43;;;2.80;;
23702;SDS011;12030;50.376;8.762;2023-05-29T13:34:59;4.20;;;2.30;;
23702;SDS011;12030;50.376;8.762;2023-05-29T13:37:25;4.90;;;2.70;;
23702;SDS011;12030;50.376;8.762;2023-05-29T13:39:52;5.40;;;3.00;;
23702;SDS011;12030;50.376;8.762;2023-05-29T13:42:18;4.23;;;2.47;;
23702;SDS011;12030;50.376;8.762;2023-05-29T13:44:44;5.80;;;2.80;;
23702;SDS011;12030;50.376;8.762;2023-05-29T13:47:09;4.17;;;2.83;;
23702;SDS011;12030;50.376;8.762;2023-05-29T13:49:35;5.17;;;2.80;;
23702;SDS011;12030;50.376;8.762;2023-05-29T13:52:01;3.50;;;2.90;;
23702;SDS011;12030;50.376;8.762;2023-05-29T13:54:30;4.07;;;2.77;;
23702;SDS011;12030;50.376;8.762;2023-05-29T13:57:00;3.00;;;2.37;;
23702;SDS011;12030;50.376;8.762;2023-05-29T13:59:32;3.47;;;2.47;;
23702;SDS011;12030;50.376;8.762;2023-05-29T14:01:59;5.73;;;2.43;;
23702;SDS011;12030;50.376;8.762;2023-05-29T14:04:25;4.50;;;2.50;;
23702;SDS011;12030;50.376;8.762;2023-05-29T14:06:51;3.03;;;2.50;;
23702;SDS011;12030;50.376;8.762;2023-05-29T14:09:17;4.53;;;2.83;;
23702;SDS011;12030;50.376;8.762;2023-05-29T14:11:47;3.73;;;2.50;;
23702;SDS011;12030;50.376;8.762;2023-05-29T14:14:13;5.40;;;2.80;;
23702;SDS011;12030;50.376;8.762;2023-05-29T14:16:38;3.90;;;2.30;;
23702;SDS011;12030;50.376;8.762;2023-05-29T14:19:04;7.03;;;2.50;;
23702;SDS011;12030;50.376;8.762;2023-05-29T14:21:29;4.23;;;2.77;;
23702;SDS011;12030;50.376;8.762;2023-05-29T14:23:55;6.33;;;2.20;;
23702;SDS011;12030;50.376;8.762;2023-05-29T14:26:21;7.53;;;2.97;;
23702;SDS011;12030;50.376;8.762;2023-05-29T14:28:46;3.00;;;2.30;;
23702;SDS011;12030;50.376;8.762;2023-05-29T14:31:12;3.57;;;2.43;;
23702;SDS011;12030;50.376;8.762;2023-05-29T14:33:37;3.37;;;2.30;;
23702;SDS011;12030;50.376;8.762;2023-05-29T14:36:03;4.93;;;2.40;;
23702;SDS011;12030;50.376;8.762;2023-05-29T14:38:28;7.47;;;2.70;;
23702;SDS011;12030;50.376;8.762;2023-05-29T14:40:54;4.50;;;2.40;;
23702;SDS011;12030;50.376;8.762;2023-05-29T14:43:20;5.73;;;2.53;;
23702;SDS011;12030;50.376;8.762;2023-05-29T14:45:45;3.77;;;2.47;;
23702;SDS011;12030;50.376;8.762;2023-05-29T14:48:11;6.20;;;2.80;;
23702;SDS011;12030;50.376;8.762;2023-05-29T14:50:37;3.87;;;2.23;;
23702;SDS011;12030;50.376;8.762;2023-05-29T14:53:02;5.23;;;2.33;;
23702;SDS011;12030;50.376;8.762;2023-05-29T14:55:28;5.20;;;2.73;;
23702;SDS011;12030;50.376;8.762;2023-05-29T14:57:55;3.53;;;2.50;;
23702;SDS011;12030;50.376;8.762;2023-05-29T15:00:21;3.50;;;2.20;;
23702;SDS011;12030;50.376;8.762;2023-05-29T15:02:46;4.33;;;2.57;;
23702;SDS011;12030;50.376;8.762;2023-05-29T15:05:12;3.90;;;2.43;;